KLM50K EKCH-EHAM
Flight info
| Callsign | KLM50K |
|---|---|
| Flight time | N/A |
| Altitude | 36000 |
| Route | LANGO M611 ALASA DCT WANZA N872 KUBAT T200 BLUFA |
| Aircraft | B739/M-SDE2E3FGHIRWXY/LB1 |
Departure
| Time | 2026-05-04 19:25 |
|---|---|
| Airport | Copenhagen Kastrup Airport (EKCH) |
Arrival
| Time | N/A |
|---|---|
| Airport | Amsterdam Airport Schiphol (EHAM) |
| Time | Latitude | Longitude | Altitude | Speed | Heading |
|---|---|---|---|---|---|
| 2026-05-04 18:54 | 55.62419 | 12.64909 | 16 ft | 0 kts | 88° |
| 2026-05-04 18:54 | 55.62422 | 12.64912 | 16 ft | 0 kts | 89° |
| 2026-05-04 19:11 | 55.62422 | 12.64892 | 16 ft | 4 kts | 89° |
| 2026-05-04 19:11 | 55.62421 | 12.64847 | 16 ft | 2 kts | 89° |
| 2026-05-04 19:12 | 55.62423 | 12.64808 | 16 ft | 4 kts | 120° |
| 2026-05-04 19:12 | 55.62466 | 12.64774 | 17 ft | 4 kts | 175° |
| 2026-05-04 19:12 | 55.62487 | 12.64773 | 19 ft | 4 kts | 179° |
| 2026-05-04 19:13 | 55.62504 | 12.64772 | 18 ft | 0 kts | 179° |
| 2026-05-04 19:19 | 55.62503 | 12.64772 | 18 ft | 1 kts | 179° |
| 2026-05-04 19:19 | 55.62475 | 12.64774 | 17 ft | 7 kts | 178° |
| 2026-05-04 19:19 | 55.62419 | 12.64778 | 16 ft | 8 kts | 176° |
| 2026-05-04 19:19 | 55.62370 | 12.64784 | 16 ft | 6 kts | 176° |
| 2026-05-04 19:20 | 55.62333 | 12.64748 | 17 ft | 7 kts | 236° |
| 2026-05-04 19:20 | 55.62314 | 12.64672 | 16 ft | 7 kts | 246° |
| 2026-05-04 19:20 | 55.62297 | 12.64602 | 17 ft | 2 kts | 246° |
| 2026-05-04 19:20 | 55.62296 | 12.64601 | 17 ft | 0 kts | 246° |
| 2026-05-04 19:21 | 55.62288 | 12.64570 | 16 ft | 10 kts | 246° |
| 2026-05-04 19:22 | 55.62229 | 12.64380 | 15 ft | 23 kts | 222° |
| 2026-05-04 19:22 | 55.62087 | 12.64251 | 17 ft | 22 kts | 206° |
| 2026-05-04 19:22 | 55.62038 | 12.64207 | 16 ft | 0 kts | 206° |
| 2026-05-04 19:22 | 55.62019 | 12.64194 | 16 ft | 8 kts | 202° |
| 2026-05-04 19:23 | 55.61965 | 12.64150 | 16 ft | 9 kts | 205° |
| 2026-05-04 19:23 | 55.61897 | 12.64093 | 16 ft | 14 kts | 205° |
| 2026-05-04 19:23 | 55.61807 | 12.64074 | 18 ft | 13 kts | 176° |
| 2026-05-04 19:23 | 55.61718 | 12.64083 | 17 ft | 13 kts | 176° |
| 2026-05-04 19:24 | 55.61631 | 12.64074 | 20 ft | 12 kts | 202° |
| 2026-05-04 19:24 | 55.61551 | 12.63959 | 18 ft | 24 kts | 221° |
| 2026-05-04 19:24 | 55.61248 | 12.63491 | 21 ft | 92 kts | 221° |
| 2026-05-04 19:24 | 55.60612 | 12.62507 | 19 ft | 148 kts | 221° |
| 2026-05-04 19:25 | 55.59724 | 12.61156 | 117 ft | 182 kts | 222° |
| 2026-05-04 19:25 | 55.58795 | 12.59715 | 824 ft | 176 kts | 223° |
| 2026-05-04 19:25 | 55.57846 | 12.58270 | 1455 ft | 183 kts | 223° |
| 2026-05-04 19:25 | 55.56869 | 12.56809 | 1963 ft | 192 kts | 226° |
| 2026-05-04 19:26 | 55.56090 | 12.54778 | 2176 ft | 209 kts | 250° |
| 2026-05-04 19:26 | 55.55394 | 12.52356 | 2358 ft | 234 kts | 242° |
| 2026-05-04 19:26 | 55.54496 | 12.49759 | 2531 ft | 262 kts | 240° |
| 2026-05-04 19:26 | 55.53496 | 12.46952 | 3070 ft | 272 kts | 239° |
| 2026-05-04 19:27 | 55.52511 | 12.44203 | 4245 ft | 257 kts | 239° |
| 2026-05-04 19:27 | 55.51575 | 12.41564 | 5199 ft | 253 kts | 240° |
| 2026-05-04 19:27 | 55.50633 | 12.38902 | 5920 ft | 257 kts | 240° |
| 2026-05-04 19:27 | 55.49698 | 12.36234 | 6743 ft | 255 kts | 240° |
| 2026-05-04 19:28 | 55.48757 | 12.33562 | 7416 ft | 259 kts | 240° |
| 2026-05-04 19:28 | 55.47796 | 12.30834 | 8068 ft | 263 kts | 240° |
| 2026-05-04 19:28 | 55.46833 | 12.28112 | 8902 ft | 261 kts | 240° |
| 2026-05-04 19:28 | 55.45869 | 12.25373 | 9558 ft | 265 kts | 240° |
| 2026-05-04 19:29 | 55.44897 | 12.22600 | 10205 ft | 268 kts | 240° |
| 2026-05-04 19:29 | 55.43888 | 12.19724 | 10501 ft | 285 kts | 240° |
| 2026-05-04 19:29 | 55.42799 | 12.16656 | 10697 ft | 305 kts | 240° |
| 2026-05-04 19:29 | 55.41640 | 12.13392 | 10853 ft | 324 kts | 240° |
| 2026-05-04 19:30 | 55.40420 | 12.09963 | 11230 ft | 334 kts | 240° |
| 2026-05-04 19:30 | 55.39177 | 12.06476 | 11789 ft | 338 kts | 240° |
| 2026-05-04 19:30 | 55.37928 | 12.02968 | 12462 ft | 340 kts | 240° |
| 2026-05-04 19:30 | 55.36668 | 11.99440 | 13146 ft | 342 kts | 239° |
| 2026-05-04 19:31 | 55.35394 | 11.95881 | 13799 ft | 345 kts | 239° |
| 2026-05-04 19:31 | 55.34105 | 11.92284 | 14403 ft | 348 kts | 239° |
| 2026-05-04 19:31 | 55.32826 | 11.88715 | 15001 ft | 351 kts | 239° |
| 2026-05-04 19:31 | 55.31520 | 11.85075 | 15601 ft | 355 kts | 239° |
| 2026-05-04 19:32 | 55.30194 | 11.81386 | 16205 ft | 358 kts | 240° |
| 2026-05-04 19:32 | 55.28857 | 11.77668 | 16795 ft | 361 kts | 240° |
| 2026-05-04 19:32 | 55.27510 | 11.73926 | 17387 ft | 365 kts | 240° |
| 2026-05-04 19:32 | 55.26145 | 11.70147 | 17961 ft | 368 kts | 239° |
| 2026-05-04 19:33 | 55.24767 | 11.66340 | 18499 ft | 371 kts | 239° |
| 2026-05-04 19:33 | 55.23366 | 11.62519 | 18993 ft | 375 kts | 239° |
| 2026-05-04 19:33 | 55.21939 | 11.58651 | 19450 ft | 379 kts | 239° |
| 2026-05-04 19:33 | 55.20504 | 11.54773 | 19966 ft | 381 kts | 239° |
| 2026-05-04 19:34 | 55.19055 | 11.50862 | 20487 ft | 384 kts | 239° |
| 2026-05-04 19:34 | 55.17617 | 11.46984 | 20983 ft | 386 kts | 239° |
| 2026-05-04 19:34 | 55.16145 | 11.43016 | 21460 ft | 389 kts | 239° |
| 2026-05-04 19:34 | 55.14656 | 11.39008 | 21966 ft | 392 kts | 238° |
| 2026-05-04 19:35 | 55.13167 | 11.35003 | 22451 ft | 395 kts | 238° |
| 2026-05-04 19:35 | 55.11660 | 11.30959 | 22930 ft | 398 kts | 238° |
| 2026-05-04 19:35 | 55.10142 | 11.26890 | 23400 ft | 401 kts | 238° |
| 2026-05-04 19:35 | 55.08618 | 11.22810 | 23813 ft | 403 kts | 238° |
| 2026-05-04 19:36 | 55.07080 | 11.18701 | 24246 ft | 404 kts | 238° |
| 2026-05-04 19:36 | 55.05539 | 11.14590 | 24702 ft | 405 kts | 238° |
| 2026-05-04 19:36 | 55.03993 | 11.10476 | 25130 ft | 406 kts | 238° |
| 2026-05-04 19:36 | 55.02966 | 11.07744 | 25397 ft | 407 kts | 238° |
| 2026-05-04 19:37 | 55.00891 | 11.02236 | 26251 ft | 399 kts | 239° |
| 2026-05-04 19:37 | 54.99890 | 10.99584 | 26752 ft | 395 kts | 239° |
| 2026-05-04 19:37 | 54.98367 | 10.95602 | 27147 ft | 398 kts | 237° |
| 2026-05-04 19:37 | 54.96738 | 10.91626 | 27204 ft | 408 kts | 236° |
| 2026-05-04 19:38 | 54.94477 | 10.86341 | 27646 ft | 411 kts | 235° |
| 2026-05-04 19:38 | 54.93318 | 10.83660 | 27962 ft | 410 kts | 235° |
| 2026-05-04 19:38 | 54.91608 | 10.79707 | 28450 ft | 409 kts | 235° |
| 2026-05-04 19:38 | 54.89912 | 10.75775 | 29050 ft | 404 kts | 236° |
| 2026-05-04 19:39 | 54.88238 | 10.71885 | 29769 ft | 398 kts | 236° |
| 2026-05-04 19:39 | 54.86594 | 10.68057 | 30381 ft | 393 kts | 236° |
| 2026-05-04 19:39 | 54.84961 | 10.64247 | 30693 ft | 395 kts | 236° |
| 2026-05-04 19:39 | 54.83314 | 10.60403 | 30891 ft | 398 kts | 236° |
| 2026-05-04 19:40 | 54.81656 | 10.56535 | 31183 ft | 400 kts | 236° |
| 2026-05-04 19:40 | 54.79999 | 10.52678 | 31581 ft | 396 kts | 236° |
| 2026-05-04 19:40 | 54.78373 | 10.48903 | 32308 ft | 387 kts | 236° |
| 2026-05-04 19:40 | 54.76758 | 10.45156 | 32561 ft | 390 kts | 236° |
| 2026-05-04 19:41 | 54.75129 | 10.41379 | 32727 ft | 393 kts | 236° |
| 2026-05-04 19:41 | 54.73506 | 10.37621 | 32924 ft | 396 kts | 236° |
| 2026-05-04 19:41 | 54.71850 | 10.33791 | 32972 ft | 400 kts | 236° |
| 2026-05-04 19:42 | 54.68511 | 10.26097 | 32982 ft | 398 kts | 236° |
| 2026-05-04 19:42 | 54.65197 | 10.18488 | 32985 ft | 394 kts | 235° |
| 2026-05-04 19:43 | 54.61906 | 10.10952 | 32995 ft | 392 kts | 235° |
| 2026-05-04 19:43 | 54.58622 | 10.03451 | 32963 ft | 391 kts | 236° |
| 2026-05-04 19:44 | 54.55358 | 9.96019 | 32985 ft | 391 kts | 235° |
| 2026-05-04 19:44 | 54.52064 | 9.88542 | 32996 ft | 392 kts | 235° |
| 2026-05-04 19:45 | 54.48756 | 9.81054 | 32996 ft | 393 kts | 235° |
| 2026-05-04 19:45 | 54.45411 | 9.73505 | 33072 ft | 401 kts | 235° |
| 2026-05-04 19:45 | 54.43727 | 9.69711 | 33222 ft | 405 kts | 235° |
| 2026-05-04 19:46 | 54.41995 | 9.65819 | 33472 ft | 406 kts | 235° |
| 2026-05-04 19:46 | 54.40279 | 9.61969 | 33775 ft | 406 kts | 235° |
| 2026-05-04 19:46 | 54.38583 | 9.58170 | 34016 ft | 407 kts | 235° |
| 2026-05-04 19:46 | 54.36856 | 9.54307 | 34220 ft | 407 kts | 235° |
| 2026-05-04 19:47 | 54.35135 | 9.50465 | 34483 ft | 406 kts | 235° |
| 2026-05-04 19:47 | 54.33411 | 9.46621 | 34684 ft | 407 kts | 234° |
| 2026-05-04 19:47 | 54.31679 | 9.42764 | 34842 ft | 409 kts | 234° |
| 2026-05-04 19:47 | 54.29943 | 9.38904 | 35045 ft | 410 kts | 234° |
| 2026-05-04 19:48 | 54.28197 | 9.35028 | 35260 ft | 410 kts | 234° |
| 2026-05-04 19:48 | 54.26457 | 9.31173 | 35477 ft | 410 kts | 234° |
| 2026-05-04 19:48 | 54.24704 | 9.27293 | 35662 ft | 411 kts | 234° |
| 2026-05-04 19:48 | 54.22953 | 9.23423 | 35831 ft | 412 kts | 234° |
| 2026-05-04 19:49 | 54.21202 | 9.19561 | 35991 ft | 412 kts | 234° |
| 2026-05-04 19:49 | 54.17690 | 9.11832 | 35996 ft | 414 kts | 234° |
| 2026-05-04 19:50 | 54.14170 | 9.04110 | 35977 ft | 411 kts | 234° |
| 2026-05-04 19:50 | 54.10664 | 8.96443 | 35991 ft | 409 kts | 234° |
| 2026-05-04 19:51 | 54.07167 | 8.88817 | 35999 ft | 407 kts | 234° |
| 2026-05-04 19:51 | 54.03672 | 8.81219 | 35996 ft | 407 kts | 234° |
| 2026-05-04 19:52 | 54.00194 | 8.73680 | 36001 ft | 408 kts | 234° |
| 2026-05-04 19:52 | 53.96678 | 8.66081 | 35997 ft | 409 kts | 233° |
| 2026-05-04 19:53 | 53.93140 | 8.58459 | 35977 ft | 411 kts | 233° |
| 2026-05-04 19:53 | 53.89586 | 8.50827 | 35996 ft | 412 kts | 233° |
| 2026-05-04 19:54 | 53.86023 | 8.43199 | 36003 ft | 414 kts | 233° |
| 2026-05-04 19:54 | 53.82440 | 8.35549 | 36013 ft | 415 kts | 233° |
| 2026-05-04 19:55 | 53.78842 | 8.27894 | 36007 ft | 415 kts | 233° |
| 2026-05-04 19:55 | 53.75234 | 8.20241 | 36007 ft | 415 kts | 233° |
| 2026-05-04 19:56 | 53.71632 | 8.12623 | 36001 ft | 415 kts | 233° |
| 2026-05-04 19:56 | 53.68053 | 8.05078 | 36014 ft | 414 kts | 233° |
| 2026-05-04 19:57 | 53.64453 | 7.97509 | 36018 ft | 413 kts | 233° |
| 2026-05-04 19:57 | 53.60856 | 7.89970 | 36021 ft | 412 kts | 233° |
| 2026-05-04 19:58 | 53.57263 | 7.82463 | 36022 ft | 411 kts | 232° |
| 2026-05-04 19:58 | 53.53669 | 7.74975 | 36026 ft | 411 kts | 232° |
| 2026-05-04 19:59 | 53.50075 | 7.67510 | 36022 ft | 410 kts | 232° |
| 2026-05-04 19:59 | 53.46504 | 7.60115 | 36022 ft | 410 kts | 232° |
| 2026-05-04 20:00 | 53.42905 | 7.52685 | 36014 ft | 410 kts | 232° |
| 2026-05-04 20:00 | 53.39298 | 7.45260 | 36022 ft | 410 kts | 232° |
| 2026-05-04 20:01 | 53.35696 | 7.37868 | 36013 ft | 403 kts | 232° |
| 2026-05-04 20:01 | 53.33952 | 7.34298 | 36000 ft | 387 kts | 232° |
| 2026-05-04 20:01 | 53.32279 | 7.30880 | 35854 ft | 376 kts | 232° |
| 2026-05-04 20:01 | 53.30625 | 7.27501 | 34888 ft | 379 kts | 232° |
| 2026-05-04 20:02 | 53.28965 | 7.24114 | 33927 ft | 382 kts | 232° |
| 2026-05-04 20:02 | 53.27286 | 7.20691 | 33078 ft | 378 kts | 231° |
| 2026-05-04 20:02 | 53.25628 | 7.17319 | 32323 ft | 373 kts | 230° |
| 2026-05-04 20:02 | 53.23977 | 7.13963 | 31776 ft | 370 kts | 230° |
| 2026-05-04 20:03 | 53.22362 | 7.10685 | 31507 ft | 361 kts | 230° |
| 2026-05-04 20:03 | 53.20776 | 7.07472 | 31119 ft | 356 kts | 230° |
| 2026-05-04 20:03 | 53.19205 | 7.04292 | 30674 ft | 353 kts | 229° |
| 2026-05-04 20:03 | 53.17652 | 7.01154 | 30272 ft | 352 kts | 229° |
| 2026-05-04 20:04 | 53.16057 | 6.97938 | 29822 ft | 369 kts | 229° |
| 2026-05-04 20:04 | 53.14373 | 6.94550 | 29318 ft | 389 kts | 229° |
| 2026-05-04 20:04 | 53.12609 | 6.91002 | 28823 ft | 401 kts | 230° |
| 2026-05-04 20:04 | 53.10827 | 6.87420 | 28322 ft | 400 kts | 230° |
| 2026-05-04 20:05 | 53.09058 | 6.83867 | 27820 ft | 396 kts | 230° |
| 2026-05-04 20:05 | 53.07330 | 6.80401 | 27361 ft | 393 kts | 230° |
| 2026-05-04 20:05 | 53.05588 | 6.76913 | 26878 ft | 390 kts | 230° |
| 2026-05-04 20:05 | 53.03855 | 6.73448 | 26401 ft | 390 kts | 230° |
| 2026-05-04 20:06 | 53.02120 | 6.69986 | 26072 ft | 391 kts | 230° |
| 2026-05-04 20:06 | 53.00371 | 6.66498 | 26053 ft | 395 kts | 230° |
| 2026-05-04 20:06 | 52.98610 | 6.62993 | 26018 ft | 394 kts | 230° |
| 2026-05-04 20:06 | 52.96875 | 6.59542 | 26019 ft | 392 kts | 230° |
| 2026-05-04 20:07 | 52.95099 | 6.56018 | 25995 ft | 393 kts | 230° |
| 2026-05-04 20:07 | 52.93343 | 6.52537 | 25997 ft | 393 kts | 230° |
| 2026-05-04 20:07 | 52.91587 | 6.49060 | 25995 ft | 393 kts | 230° |
| 2026-05-04 20:07 | 52.89833 | 6.45592 | 25984 ft | 391 kts | 230° |
| 2026-05-04 20:08 | 52.88105 | 6.42179 | 25680 ft | 383 kts | 230° |
| 2026-05-04 20:08 | 52.86396 | 6.38806 | 25042 ft | 383 kts | 231° |
| 2026-05-04 20:08 | 52.84673 | 6.35415 | 24301 ft | 385 kts | 231° |
| 2026-05-04 20:08 | 52.82969 | 6.32066 | 23591 ft | 387 kts | 231° |
| 2026-05-04 20:09 | 52.81223 | 6.28653 | 22775 ft | 389 kts | 231° |
| 2026-05-04 20:09 | 52.79456 | 6.25286 | 22241 ft | 385 kts | 230° |
| 2026-05-04 20:09 | 52.77705 | 6.21982 | 21708 ft | 380 kts | 230° |
| 2026-05-04 20:09 | 52.75963 | 6.18712 | 21143 ft | 378 kts | 230° |
| 2026-05-04 20:10 | 52.74228 | 6.15460 | 20542 ft | 376 kts | 230° |
| 2026-05-04 20:10 | 52.72505 | 6.12233 | 19971 ft | 374 kts | 230° |
| 2026-05-04 20:10 | 52.70789 | 6.09019 | 19428 ft | 372 kts | 230° |
| 2026-05-04 20:10 | 52.69083 | 6.05824 | 18901 ft | 370 kts | 230° |
| 2026-05-04 20:11 | 52.67357 | 6.02704 | 18400 ft | 368 kts | 226° |
| 2026-05-04 20:11 | 52.65497 | 5.99831 | 17895 ft | 365 kts | 224° |
| 2026-05-04 20:11 | 52.63614 | 5.97053 | 17349 ft | 362 kts | 223° |
| 2026-05-04 20:11 | 52.61733 | 5.94302 | 16809 ft | 360 kts | 223° |
| 2026-05-04 20:12 | 52.59862 | 5.91589 | 16231 ft | 358 kts | 223° |
| 2026-05-04 20:12 | 52.57993 | 5.88886 | 15665 ft | 357 kts | 223° |
| 2026-05-04 20:12 | 52.56136 | 5.86185 | 15146 ft | 356 kts | 222° |
| 2026-05-04 20:12 | 52.54295 | 5.83502 | 14663 ft | 353 kts | 222° |
| 2026-05-04 20:13 | 52.52455 | 5.80820 | 14139 ft | 352 kts | 223° |
| 2026-05-04 20:13 | 52.50660 | 5.78205 | 13685 ft | 349 kts | 223° |
| 2026-05-04 20:13 | 52.48858 | 5.75564 | 13153 ft | 347 kts | 223° |
| 2026-05-04 20:13 | 52.47067 | 5.72931 | 12706 ft | 342 kts | 223° |
| 2026-05-04 20:14 | 52.45299 | 5.70327 | 12221 ft | 340 kts | 223° |
| 2026-05-04 20:14 | 52.43563 | 5.67767 | 12035 ft | 333 kts | 223° |
| 2026-05-04 20:14 | 52.41846 | 5.65231 | 12000 ft | 335 kts | 223° |
| 2026-05-04 20:14 | 52.40101 | 5.62644 | 12004 ft | 339 kts | 223° |
| 2026-05-04 20:15 | 52.38348 | 5.60047 | 12000 ft | 342 kts | 222° |
| 2026-05-04 20:15 | 52.36586 | 5.57425 | 11988 ft | 342 kts | 223° |
| 2026-05-04 20:15 | 52.34829 | 5.54802 | 11985 ft | 341 kts | 223° |
| 2026-05-04 20:15 | 52.33079 | 5.52185 | 11988 ft | 341 kts | 223° |
| 2026-05-04 20:16 | 52.31328 | 5.49565 | 11990 ft | 340 kts | 223° |
| 2026-05-04 20:16 | 52.29581 | 5.46955 | 11993 ft | 340 kts | 223° |
| 2026-05-04 20:16 | 52.27836 | 5.44347 | 11993 ft | 340 kts | 223° |
| 2026-05-04 20:16 | 52.26097 | 5.41763 | 11880 ft | 336 kts | 223° |
| 2026-05-04 20:17 | 52.24379 | 5.39238 | 11704 ft | 326 kts | 223° |
| 2026-05-04 20:17 | 52.22630 | 5.37000 | 11598 ft | 314 kts | 210° |
| 2026-05-04 20:17 | 52.20711 | 5.35528 | 11480 ft | 296 kts | 204° |
| 2026-05-04 20:17 | 52.18875 | 5.34303 | 11208 ft | 285 kts | 202° |
| 2026-05-04 20:18 | 52.17045 | 5.33100 | 10721 ft | 283 kts | 203° |
| 2026-05-04 20:18 | 52.15228 | 5.31918 | 10228 ft | 280 kts | 202° |
| 2026-05-04 20:18 | 52.13413 | 5.30719 | 9722 ft | 279 kts | 202° |
| 2026-05-04 20:18 | 52.11632 | 5.29522 | 9229 ft | 276 kts | 205° |
| 2026-05-04 20:19 | 52.10043 | 5.27767 | 8630 ft | 276 kts | 222° |
| 2026-05-04 20:19 | 52.08620 | 5.25669 | 8154 ft | 274 kts | 222° |
| 2026-05-04 20:19 | 52.07225 | 5.23604 | 8045 ft | 274 kts | 223° |
| 2026-05-04 20:19 | 52.05805 | 5.21500 | 8000 ft | 277 kts | 223° |
| 2026-05-04 20:20 | 52.04595 | 5.19121 | 7952 ft | 272 kts | 245° |
| 2026-05-04 20:20 | 52.04166 | 5.16224 | 7868 ft | 259 kts | 268° |
| 2026-05-04 20:20 | 52.04176 | 5.13380 | 7710 ft | 246 kts | 272° |
| 2026-05-04 20:20 | 52.04234 | 5.10630 | 7336 ft | 243 kts | 272° |
| 2026-05-04 20:21 | 52.04296 | 5.07882 | 6945 ft | 245 kts | 272° |
| 2026-05-04 20:21 | 52.04360 | 5.05119 | 6685 ft | 243 kts | 272° |
| 2026-05-04 20:21 | 52.04482 | 4.99673 | 6135 ft | 241 kts | 272° |
| 2026-05-04 20:22 | 52.04518 | 4.97880 | 5940 ft | 240 kts | 272° |
| 2026-05-04 20:22 | 52.04570 | 4.95175 | 5653 ft | 239 kts | 272° |
| 2026-05-04 20:22 | 52.04622 | 4.92479 | 5375 ft | 238 kts | 272° |
| 2026-05-04 20:22 | 52.04667 | 4.89794 | 5100 ft | 237 kts | 272° |
| 2026-05-04 20:23 | 52.04707 | 4.87111 | 4842 ft | 236 kts | 272° |
| 2026-05-04 20:23 | 52.04739 | 4.84459 | 4560 ft | 235 kts | 272° |
| 2026-05-04 20:23 | 52.04990 | 4.81860 | 4235 ft | 233 kts | 296° |
| 2026-05-04 20:23 | 52.05985 | 4.79873 | 3931 ft | 226 kts | 327° |
| 2026-05-04 20:24 | 52.07320 | 4.78608 | 3680 ft | 218 kts | 332° |
| 2026-05-04 20:24 | 52.08631 | 4.77428 | 3470 ft | 210 kts | 333° |
| 2026-05-04 20:24 | 52.09901 | 4.76322 | 3205 ft | 204 kts | 340° |
| 2026-05-04 20:24 | 52.11246 | 4.76102 | 3113 ft | 194 kts | 10° |
| 2026-05-04 20:25 | 52.12610 | 4.76327 | 3050 ft | 196 kts | 2° |
| 2026-05-04 20:25 | 52.13936 | 4.76364 | 2957 ft | 191 kts | 3° |
| 2026-05-04 20:25 | 52.15266 | 4.76454 | 2721 ft | 192 kts | 4° |
| 2026-05-04 20:25 | 52.16588 | 4.76570 | 2470 ft | 189 kts | 5° |
| 2026-05-04 20:26 | 52.17868 | 4.76689 | 2222 ft | 178 kts | 5° |
| 2026-05-04 20:26 | 52.19069 | 4.76801 | 1968 ft | 168 kts | 6° |
| 2026-05-04 20:26 | 52.20218 | 4.76909 | 1782 ft | 161 kts | 5° |
| 2026-05-04 20:26 | 52.21320 | 4.77004 | 1554 ft | 154 kts | 5° |
| 2026-05-04 20:27 | 52.22369 | 4.77102 | 1355 ft | 151 kts | 6° |
| 2026-05-04 20:27 | 52.23425 | 4.77209 | 1122 ft | 152 kts | 6° |
| 2026-05-04 20:27 | 52.24430 | 4.77304 | 1069 ft | 139 kts | 6° |
| 2026-05-04 20:27 | 52.25412 | 4.77393 | 752 ft | 140 kts | 6° |
| 2026-05-04 20:28 | 52.26380 | 4.77486 | 569 ft | 142 kts | 3° |
| 2026-05-04 20:28 | 52.27368 | 4.77573 | 368 ft | 143 kts | 5° |
| 2026-05-04 20:28 | 52.28356 | 4.77668 | 170 ft | 144 kts | 5° |
| 2026-05-04 20:28 | 52.29344 | 4.77758 | 7 ft | 139 kts | 4° |
| 2026-05-04 20:29 | 52.30238 | 4.77841 | 0 ft | 130 kts | 3° |
| 2026-05-04 20:29 | 52.31278 | 4.77929 | 433 ft | 150 kts | 6° |
| 2026-05-04 20:29 | 52.32189 | 4.78035 | 1486 ft | 125 kts | 6° |
| 2026-05-04 20:29 | 52.33180 | 4.78185 | 1814 ft | 160 kts | 9° |
| 2026-05-04 20:30 | 52.34334 | 4.78467 | 2435 ft | 172 kts | 11° |
| 2026-05-04 20:30 | 52.35488 | 4.78800 | 3404 ft | 170 kts | 13° |
| 2026-05-04 20:30 | 52.36559 | 4.79830 | 3843 ft | 199 kts | 48° |
| 2026-05-04 20:30 | 52.37168 | 4.82086 | 3991 ft | 241 kts | 81° |
| 2026-05-04 20:31 | 52.37018 | 4.84958 | 3995 ft | 259 kts | 103° |
| 2026-05-04 20:31 | 52.36554 | 4.87846 | 3966 ft | 264 kts | 105° |
| 2026-05-04 20:31 | 52.36050 | 4.90711 | 3989 ft | 262 kts | 108° |
| 2026-05-04 20:31 | 52.35121 | 4.93257 | 3995 ft | 262 kts | 136° |
| 2026-05-04 20:32 | 52.33611 | 4.94920 | 4009 ft | 262 kts | 151° |
| 2026-05-04 20:32 | 52.31980 | 4.96279 | 4000 ft | 263 kts | 153° |
| 2026-05-04 20:32 | 52.30339 | 4.97600 | 3997 ft | 263 kts | 155° |
| 2026-05-04 20:32 | 52.28591 | 4.98305 | 3991 ft | 264 kts | 178° |
| 2026-05-04 20:33 | 52.26754 | 4.98260 | 3992 ft | 265 kts | 182° |
| 2026-05-04 20:33 | 52.24911 | 4.98131 | 3998 ft | 265 kts | 182° |
| 2026-05-04 20:33 | 52.23070 | 4.97988 | 3989 ft | 265 kts | 182° |
| 2026-05-04 20:33 | 52.21224 | 4.97840 | 3997 ft | 265 kts | 182° |
| 2026-05-04 20:34 | 52.19378 | 4.97687 | 3956 ft | 266 kts | 183° |
| 2026-05-04 20:34 | 52.17607 | 4.96961 | 3765 ft | 262 kts | 209° |
| 2026-05-04 20:34 | 52.16269 | 4.95009 | 3399 ft | 261 kts | 238° |
| 2026-05-04 20:34 | 52.15673 | 4.92255 | 2996 ft | 257 kts | 266° |
| 2026-05-04 20:35 | 52.15647 | 4.89385 | 2623 ft | 251 kts | 272° |
| 2026-05-04 20:35 | 52.15655 | 4.86520 | 2145 ft | 252 kts | 272° |
| 2026-05-04 20:35 | 52.15653 | 4.83755 | 2022 ft | 236 kts | 272° |
| 2026-05-04 20:35 | 52.15649 | 4.81180 | 1967 ft | 219 kts | 272° |
| 2026-05-04 20:36 | 52.15864 | 4.78799 | 1973 ft | 208 kts | 302° |
| 2026-05-04 20:36 | 52.16852 | 4.77354 | 1993 ft | 184 kts | 347° |
| 2026-05-04 20:36 | 52.18080 | 4.77084 | 2001 ft | 177 kts | 359° |
| 2026-05-04 20:36 | 52.19301 | 4.76961 | 1828 ft | 183 kts | 0° |
| 2026-05-04 20:37 | 52.20541 | 4.76949 | 1671 ft | 173 kts | 5° |
| 2026-05-04 20:37 | 52.21665 | 4.77040 | 1508 ft | 154 kts | 6° |
| 2026-05-04 20:37 | 52.22698 | 4.77136 | 1348 ft | 147 kts | 6° |
| 2026-05-04 20:37 | 52.23707 | 4.77233 | 1123 ft | 142 kts | 6° |
| 2026-05-04 20:38 | 52.24684 | 4.77334 | 844 ft | 141 kts | 6° |
| 2026-05-04 20:38 | 52.25667 | 4.77454 | 670 ft | 143 kts | 5° |
| 2026-05-04 20:38 | 52.26668 | 4.77563 | 515 ft | 147 kts | 2° |
| 2026-05-04 20:38 | 52.27698 | 4.77576 | 359 ft | 148 kts | 1° |
| 2026-05-04 20:39 | 52.28722 | 4.77688 | 116 ft | 148 kts | 7° |
| 2026-05-04 20:39 | 52.29717 | 4.77792 | -4 ft | 133 kts | 2° |
| 2026-05-04 20:39 | 52.30010 | 4.77820 | -4 ft | 118 kts | 5° |